PMDY METAR and TAF weather

Enter ICAO airport designator
Station Type Date Time Source
PMDY METAR 2022/01/26 19:56 UTC NOAA

PMDY 261956Z AUTO 29017G20KT 10SM SCT014 OVC025 18/16 A2983 RMK AO2 SLP101 T01830161


Station Type Date Time Source
PMDY Decoded METAR 2022/01/26 19:56 UTC NOAA

Sand Island, Henderson Field Airport, HI, United States (PMDY) 28-13N 177-22W 6M
Jan 26, 2022 - 02:56 PM EST / 2022.01.26 1956 UTC
Wind: from the WNW (290 degrees) at 20 MPH (17 KT) gusting to 23 MPH (20 KT):0
Visibility: 10 mile(s):0
Sky conditions: overcast
Temperature: 64.9 F (18.3 C)
Dew Point: 61.0 F (16.1 C)
Relative Humidity: 86%
Pressure (altimeter): 29.83 in. Hg (1010 hPa)
ob: PMDY 261956Z AUTO 29017G20KT 10SM SCT014 OVC025 18/16 A2983 RMK AO2 SLP101 T01830161
cycle: 20

Station Type Date Time Source
PMDY TAF 2022/01/26 18:22 UTC NOAA

TAF PMDY 261720Z 2618/2718 24018G28KT P6SM VCSH FEW015 BKN025 OVC045
FM262200 32015G25KT P6SM SCT020 BKN035 BKN060
FM270100 36011KT P6SM SCT020 BKN045
FM270900 31008KT P6SM SCT025 SCT050

Example: see airport list